sensor_id;sensor_type;location;lat;lon;timestamp;P1;durP1;ratioP1;P2;durP2;ratioP2
10715;SDS011;5409;42.620;23.316;2022-09-09T00:02:02;10.85;;;8.52;;
10715;SDS011;5409;42.620;23.316;2022-09-09T00:04:37;9.75;;;7.65;;
10715;SDS011;5409;42.620;23.316;2022-09-09T00:07:07;9.73;;;8.73;;
10715;SDS011;5409;42.620;23.316;2022-09-09T00:09:40;9.18;;;8.30;;
10715;SDS011;5409;42.620;23.316;2022-09-09T00:12:14;12.90;;;8.27;;
10715;SDS011;5409;42.620;23.316;2022-09-09T00:14:47;9.73;;;8.70;;
10715;SDS011;5409;42.620;23.316;2022-09-09T00:17:22;10.95;;;8.48;;
10715;SDS011;5409;42.620;23.316;2022-09-09T00:19:58;8.93;;;7.82;;
10715;SDS011;5409;42.620;23.316;2022-09-09T00:22:29;10.70;;;8.35;;
10715;SDS011;5409;42.620;23.316;2022-09-09T00:24:58;8.98;;;8.18;;
10715;SDS011;5409;42.620;23.316;2022-09-09T00:27:36;9.05;;;8.10;;
10715;SDS011;5409;42.620;23.316;2022-09-09T00:30:13;9.73;;;8.77;;
10715;SDS011;5409;42.620;23.316;2022-09-09T00:32:44;8.68;;;7.55;;
10715;SDS011;5409;42.620;23.316;2022-09-09T00:35:16;8.95;;;7.97;;
10715;SDS011;5409;42.620;23.316;2022-09-09T00:37:47;9.20;;;8.15;;
10715;SDS011;5409;42.620;23.316;2022-09-09T00:40:18;9.88;;;8.27;;
10715;SDS011;5409;42.620;23.316;2022-09-09T00:42:52;9.02;;;8.13;;
10715;SDS011;5409;42.620;23.316;2022-09-09T00:45:39;9.18;;;8.18;;
10715;SDS011;5409;42.620;23.316;2022-09-09T00:48:22;9.10;;;8.20;;
10715;SDS011;5409;42.620;23.316;2022-09-09T00:51:05;10.15;;;8.45;;
10715;SDS011;5409;42.620;23.316;2022-09-09T00:53:51;9.55;;;8.30;;
10715;SDS011;5409;42.620;23.316;2022-09-09T00:56:30;8.88;;;7.78;;
10715;SDS011;5409;42.620;23.316;2022-09-09T00:59:10;8.98;;;8.07;;
10715;SDS011;5409;42.620;23.316;2022-09-09T01:01:48;9.55;;;8.30;;
10715;SDS011;5409;42.620;23.316;2022-09-09T01:04:16;11.40;;;8.27;;
10715;SDS011;5409;42.620;23.316;2022-09-09T01:06:54;10.00;;;8.60;;
10715;SDS011;5409;42.620;23.316;2022-09-09T01:09:29;12.80;;;9.13;;
10715;SDS011;5409;42.620;23.316;2022-09-09T01:12:07;10.02;;;8.98;;
10715;SDS011;5409;42.620;23.316;2022-09-09T01:14:40;8.57;;;7.75;;
10715;SDS011;5409;42.620;23.316;2022-09-09T01:17:14;10.93;;;9.10;;
10715;SDS011;5409;42.620;23.316;2022-09-09T01:19:50;9.50;;;8.23;;
10715;SDS011;5409;42.620;23.316;2022-09-09T01:22:29;10.32;;;7.85;;
10715;SDS011;5409;42.620;23.316;2022-09-09T01:27:52;12.07;;;8.82;;
10715;SDS011;5409;42.620;23.316;2022-09-09T01:30:22;18.17;;;8.25;;
10715;SDS011;5409;42.620;23.316;2022-09-09T01:32:50;9.52;;;8.63;;
10715;SDS011;5409;42.620;23.316;2022-09-09T01:35:23;9.40;;;8.50;;
10715;SDS011;5409;42.620;23.316;2022-09-09T01:37:57;10.85;;;8.40;;
10715;SDS011;5409;42.620;23.316;2022-09-09T01:40:25;10.75;;;8.57;;
10715;SDS011;5409;42.620;23.316;2022-09-09T01:42:53;9.20;;;8.20;;
10715;SDS011;5409;42.620;23.316;2022-09-09T01:45:21;9.85;;;8.85;;
10715;SDS011;5409;42.620;23.316;2022-09-09T01:47:49;9.40;;;8.50;;
10715;SDS011;5409;42.620;23.316;2022-09-09T01:50:18;10.02;;;8.63;;
10715;SDS011;5409;42.620;23.316;2022-09-09T01:52:46;9.02;;;7.75;;
10715;SDS011;5409;42.620;23.316;2022-09-09T01:55:16;10.43;;;8.05;;
10715;SDS011;5409;42.620;23.316;2022-09-09T01:57:48;13.75;;;8.68;;
10715;SDS011;5409;42.620;23.316;2022-09-09T02:00:24;9.70;;;8.60;;
10715;SDS011;5409;42.620;23.316;2022-09-09T02:02:55;8.88;;;7.72;;
10715;SDS011;5409;42.620;23.316;2022-09-09T02:05:29;9.00;;;8.10;;
10715;SDS011;5409;42.620;23.316;2022-09-09T02:08:03;10.25;;;8.13;;
10715;SDS011;5409;42.620;23.316;2022-09-09T02:10:35;9.18;;;7.93;;
10715;SDS011;5409;42.620;23.316;2022-09-09T02:13:09;9.52;;;7.80;;
10715;SDS011;5409;42.620;23.316;2022-09-09T02:15:42;9.48;;;8.57;;
10715;SDS011;5409;42.620;23.316;2022-09-09T02:18:13;9.02;;;8.15;;
10715;SDS011;5409;42.620;23.316;2022-09-09T02:20:47;9.63;;;8.20;;
10715;SDS011;5409;42.620;23.316;2022-09-09T02:23:14;9.38;;;8.45;;
10715;SDS011;5409;42.620;23.316;2022-09-09T02:25:42;9.43;;;8.52;;
10715;SDS011;5409;42.620;23.316;2022-09-09T02:28:11;12.80;;;9.30;;
10715;SDS011;5409;42.620;23.316;2022-09-09T02:30:42;10.35;;;9.25;;
10715;SDS011;5409;42.620;23.316;2022-09-09T02:33:12;11.73;;;9.05;;
10715;SDS011;5409;42.620;23.316;2022-09-09T02:35:40;10.77;;;9.25;;
10715;SDS011;5409;42.620;23.316;2022-09-09T02:38:10;9.80;;;8.88;;
10715;SDS011;5409;42.620;23.316;2022-09-09T02:40:40;12.13;;;8.93;;
10715;SDS011;5409;42.620;23.316;2022-09-09T02:43:06;9.65;;;8.55;;
10715;SDS011;5409;42.620;23.316;2022-09-09T02:45:35;9.55;;;8.57;;
10715;SDS011;5409;42.620;23.316;2022-09-09T02:48:11;9.75;;;8.75;;
10715;SDS011;5409;42.620;23.316;2022-09-09T02:50:45;15.18;;;9.63;;
10715;SDS011;5409;42.620;23.316;2022-09-09T02:53:22;13.48;;;9.32;;
10715;SDS011;5409;42.620;23.316;2022-09-09T02:55:56;11.75;;;9.38;;
10715;SDS011;5409;42.620;23.316;2022-09-09T02:58:25;10.68;;;9.52;;
10715;SDS011;5409;42.620;23.316;2022-09-09T03:00:52;10.80;;;9.80;;
10715;SDS011;5409;42.620;23.316;2022-09-09T03:03:20;10.30;;;9.30;;
10715;SDS011;5409;42.620;23.316;2022-09-09T03:05:47;10.20;;;9.10;;
10715;SDS011;5409;42.620;23.316;2022-09-09T03:08:14;9.82;;;8.90;;
10715;SDS011;5409;42.620;23.316;2022-09-09T03:10:41;11.65;;;8.95;;
10715;SDS011;5409;42.620;23.316;2022-09-09T03:13:08;9.73;;;8.75;;
10715;SDS011;5409;42.620;23.316;2022-09-09T03:15:34;9.90;;;8.82;;
10715;SDS011;5409;42.620;23.316;2022-09-09T03:18:02;12.85;;;8.70;;
10715;SDS011;5409;42.620;23.316;2022-09-09T03:20:30;10.85;;;8.98;;
10715;SDS011;5409;42.620;23.316;2022-09-09T03:22:57;10.00;;;9.10;;
10715;SDS011;5409;42.620;23.316;2022-09-09T03:25:26;10.38;;;9.38;;
10715;SDS011;5409;42.620;23.316;2022-09-09T03:27:54;9.82;;;8.93;;
10715;SDS011;5409;42.620;23.316;2022-09-09T03:30:21;15.10;;;9.57;;
10715;SDS011;5409;42.620;23.316;2022-09-09T03:32:48;10.43;;;9.32;;
10715;SDS011;5409;42.620;23.316;2022-09-09T03:35:15;11.40;;;9.70;;
10715;SDS011;5409;42.620;23.316;2022-09-09T03:37:43;10.80;;;9.70;;
10715;SDS011;5409;42.620;23.316;2022-09-09T03:40:10;10.48;;;9.38;;
10715;SDS011;5409;42.620;23.316;2022-09-09T03:42:37;12.73;;;9.93;;
10715;SDS011;5409;42.620;23.316;2022-09-09T03:45:05;11.27;;;9.13;;
10715;SDS011;5409;42.620;23.316;2022-09-09T03:47:34;10.18;;;9.18;;
10715;SDS011;5409;42.620;23.316;2022-09-09T03:50:01;10.35;;;9.25;;
10715;SDS011;5409;42.620;23.316;2022-09-09T03:52:29;10.40;;;9.30;;
10715;SDS011;5409;42.620;23.316;2022-09-09T03:54:57;11.10;;;9.93;;
10715;SDS011;5409;42.620;23.316;2022-09-09T03:57:24;11.93;;;10.50;;
10715;SDS011;5409;42.620;23.316;2022-09-09T03:59:50;12.52;;;10.02;;
10715;SDS011;5409;42.620;23.316;2022-09-09T04:02:17;10.80;;;9.70;;
10715;SDS011;5409;42.620;23.316;2022-09-09T04:04:44;10.85;;;9.48;;
10715;SDS011;5409;42.620;23.316;2022-09-09T04:07:10;13.50;;;10.27;;
10715;SDS011;5409;42.620;23.316;2022-09-09T04:09:37;11.45;;;10.25;;
10715;SDS011;5409;42.620;23.316;2022-09-09T04:12:06;11.48;;;10.27;;
10715;SDS011;5409;42.620;23.316;2022-09-09T04:14:33;11.30;;;10.20;;
10715;SDS011;5409;42.620;23.316;2022-09-09T04:16:59;11.15;;;10.05;;
10715;SDS011;5409;42.620;23.316;2022-09-09T04:19:29;12.15;;;9.70;;
10715;SDS011;5409;42.620;23.316;2022-09-09T04:21:56;10.55;;;9.55;;
10715;SDS011;5409;42.620;23.316;2022-09-09T04:24:26;10.75;;;9.43;;
10715;SDS011;5409;42.620;23.316;2022-09-09T04:26:54;12.13;;;10.82;;
10715;SDS011;5409;42.620;23.316;2022-09-09T04:29:22;11.13;;;9.93;;
10715;SDS011;5409;42.620;23.316;2022-09-09T04:31:49;11.13;;;8.82;;
10715;SDS011;5409;42.620;23.316;2022-09-09T04:34:15;11.02;;;9.82;;
10715;SDS011;5409;42.620;23.316;2022-09-09T04:36:42;11.35;;;10.15;;
10715;SDS011;5409;42.620;23.316;2022-09-09T04:39:09;11.70;;;9.82;;
10715;SDS011;5409;42.620;23.316;2022-09-09T04:41:35;11.52;;;9.68;;
10715;SDS011;5409;42.620;23.316;2022-09-09T04:44:02;10.70;;;9.63;;
10715;SDS011;5409;42.620;23.316;2022-09-09T04:46:30;11.15;;;9.90;;
10715;SDS011;5409;42.620;23.316;2022-09-09T04:48:59;11.13;;;10.02;;
10715;SDS011;5409;42.620;23.316;2022-09-09T04:51:26;12.65;;;10.65;;
10715;SDS011;5409;42.620;23.316;2022-09-09T04:53:53;10.98;;;9.80;;
10715;SDS011;5409;42.620;23.316;2022-09-09T04:56:19;11.43;;;10.23;;
10715;SDS011;5409;42.620;23.316;2022-09-09T04:58:46;9.98;;;8.98;;
10715;SDS011;5409;42.620;23.316;2022-09-09T05:01:14;11.18;;;10.15;;
10715;SDS011;5409;42.620;23.316;2022-09-09T05:03:43;10.57;;;9.55;;
10715;SDS011;5409;42.620;23.316;2022-09-09T05:06:11;11.95;;;9.93;;
10715;SDS011;5409;42.620;23.316;2022-09-09T05:08:39;10.80;;;9.80;;
10715;SDS011;5409;42.620;23.316;2022-09-09T05:11:13;12.50;;;10.32;;
10715;SDS011;5409;42.620;23.316;2022-09-09T05:13:40;14.02;;;10.48;;
10715;SDS011;5409;42.620;23.316;2022-09-09T05:16:07;15.63;;;10.40;;
10715;SDS011;5409;42.620;23.316;2022-09-09T05:18:35;11.10;;;9.82;;
10715;SDS011;5409;42.620;23.316;2022-09-09T05:21:03;10.02;;;8.90;;
10715;SDS011;5409;42.620;23.316;2022-09-09T05:23:31;13.63;;;10.30;;
10715;SDS011;5409;42.620;23.316;2022-09-09T05:25:59;12.55;;;9.85;;
10715;SDS011;5409;42.620;23.316;2022-09-09T05:28:26;10.90;;;9.80;;
10715;SDS011;5409;42.620;23.316;2022-09-09T05:30:57;10.77;;;9.57;;
10715;SDS011;5409;42.620;23.316;2022-09-09T05:33:25;12.02;;;10.35;;
10715;SDS011;5409;42.620;23.316;2022-09-09T05:35:58;13.50;;;9.82;;
10715;SDS011;5409;42.620;23.316;2022-09-09T05:38:28;10.27;;;9.15;;
10715;SDS011;5409;42.620;23.316;2022-09-09T05:40:55;11.80;;;9.00;;
10715;SDS011;5409;42.620;23.316;2022-09-09T05:43:22;10.88;;;9.63;;
10715;SDS011;5409;42.620;23.316;2022-09-09T05:45:58;12.35;;;10.05;;
10715;SDS011;5409;42.620;23.316;2022-09-09T05:48:27;12.23;;;9.60;;
10715;SDS011;5409;42.620;23.316;2022-09-09T05:50:54;15.52;;;9.77;;
10715;SDS011;5409;42.620;23.316;2022-09-09T05:53:21;12.13;;;10.68;;
10715;SDS011;5409;42.620;23.316;2022-09-09T05:55:49;14.93;;;10.35;;
10715;SDS011;5409;42.620;23.316;2022-09-09T05:58:16;13.02;;;9.73;;
10715;SDS011;5409;42.620;23.316;2022-09-09T06:00:43;13.65;;;10.05;;
10715;SDS011;5409;42.620;23.316;2022-09-09T06:03:10;15.50;;;11.35;;
10715;SDS011;5409;42.620;23.316;2022-09-09T06:05:37;12.73;;;11.43;;
10715;SDS011;5409;42.620;23.316;2022-09-09T06:08:04;16.48;;;11.52;;
10715;SDS011;5409;42.620;23.316;2022-09-09T06:10:31;17.73;;;11.07;;
10715;SDS011;5409;42.620;23.316;2022-09-09T06:13:00;13.30;;;11.38;;
10715;SDS011;5409;42.620;23.316;2022-09-09T06:15:27;15.02;;;11.30;;
10715;SDS011;5409;42.620;23.316;2022-09-09T06:17:55;12.82;;;11.38;;
10715;SDS011;5409;42.620;23.316;2022-09-09T06:20:22;16.65;;;11.77;;
10715;SDS011;5409;42.620;23.316;2022-09-09T06:22:49;19.67;;;10.90;;
10715;SDS011;5409;42.620;23.316;2022-09-09T06:25:16;14.93;;;11.10;;
10715;SDS011;5409;42.620;23.316;2022-09-09T06:27:43;11.85;;;10.75;;
10715;SDS011;5409;42.620;23.316;2022-09-09T06:30:16;11.15;;;9.95;;
10715;SDS011;5409;42.620;23.316;2022-09-09T06:32:43;15.18;;;11.25;;
10715;SDS011;5409;42.620;23.316;2022-09-09T06:35:10;13.77;;;9.98;;
10715;SDS011;5409;42.620;23.316;2022-09-09T06:37:37;13.70;;;10.18;;
10715;SDS011;5409;42.620;23.316;2022-09-09T06:40:04;11.07;;;9.98;;
10715;SDS011;5409;42.620;23.316;2022-09-09T06:42:31;10.82;;;8.90;;
10715;SDS011;5409;42.620;23.316;2022-09-09T06:44:57;15.27;;;9.10;;
10715;SDS011;5409;42.620;23.316;2022-09-09T06:47:26;12.40;;;8.20;;
10715;SDS011;5409;42.620;23.316;2022-09-09T06:49:55;11.85;;;8.43;;
10715;SDS011;5409;42.620;23.316;2022-09-09T06:52:21;10.10;;;7.38;;
10715;SDS011;5409;42.620;23.316;2022-09-09T06:54:49;11.70;;;7.57;;
10715;SDS011;5409;42.620;23.316;2022-09-09T06:57:16;10.35;;;7.22;;
10715;SDS011;5409;42.620;23.316;2022-09-09T06:59:43;10.68;;;7.95;;
10715;SDS011;5409;42.620;23.316;2022-09-09T07:02:09;10.93;;;7.03;;
10715;SDS011;5409;42.620;23.316;2022-09-09T07:04:37;10.48;;;6.78;;
10715;SDS011;5409;42.620;23.316;2022-09-09T07:07:04;9.38;;;7.38;;
10715;SDS011;5409;42.620;23.316;2022-09-09T07:09:31;10.73;;;7.05;;
10715;SDS011;5409;42.620;23.316;2022-09-09T07:11:58;12.07;;;7.65;;
10715;SDS011;5409;42.620;23.316;2022-09-09T07:14:25;13.85;;;7.07;;
10715;SDS011;5409;42.620;23.316;2022-09-09T07:16:52;9.70;;;7.20;;
10715;SDS011;5409;42.620;23.316;2022-09-09T07:19:19;11.15;;;6.75;;
10715;SDS011;5409;42.620;23.316;2022-09-09T07:21:47;15.68;;;7.55;;
10715;SDS011;5409;42.620;23.316;2022-09-09T07:24:14;11.85;;;7.07;;
10715;SDS011;5409;42.620;23.316;2022-09-09T07:26:41;7.32;;;6.25;;
10715;SDS011;5409;42.620;23.316;2022-09-09T07:29:09;15.40;;;7.28;;
10715;SDS011;5409;42.620;23.316;2022-09-09T07:31:38;14.38;;;7.22;;
10715;SDS011;5409;42.620;23.316;2022-09-09T07:34:06;7.78;;;6.57;;
10715;SDS011;5409;42.620;23.316;2022-09-09T07:36:33;8.68;;;6.35;;
10715;SDS011;5409;42.620;23.316;2022-09-09T07:39:03;8.63;;;6.57;;
10715;SDS011;5409;42.620;23.316;2022-09-09T07:41:33;11.27;;;6.68;;
10715;SDS011;5409;42.620;23.316;2022-09-09T07:44:04;11.80;;;6.75;;
10715;SDS011;5409;42.620;23.316;2022-09-09T07:46:32;15.75;;;7.25;;
10715;SDS011;5409;42.620;23.316;2022-09-09T07:49:00;9.45;;;6.35;;
10715;SDS011;5409;42.620;23.316;2022-09-09T07:51:27;16.20;;;6.82;;
10715;SDS011;5409;42.620;23.316;2022-09-09T07:53:56;9.15;;;6.30;;
10715;SDS011;5409;42.620;23.316;2022-09-09T07:56:25;11.50;;;6.63;;
10715;SDS011;5409;42.620;23.316;2022-09-09T07:58:54;16.90;;;6.97;;
10715;SDS011;5409;42.620;23.316;2022-09-09T08:01:22;9.95;;;6.38;;
10715;SDS011;5409;42.620;23.316;2022-09-09T08:03:53;8.90;;;6.55;;
10715;SDS011;5409;42.620;23.316;2022-09-09T08:06:20;9.93;;;5.80;;
10715;SDS011;5409;42.620;23.316;2022-09-09T08:08:50;15.23;;;6.13;;
10715;SDS011;5409;42.620;23.316;2022-09-09T08:11:18;22.77;;;6.10;;
10715;SDS011;5409;42.620;23.316;2022-09-09T08:13:46;12.63;;;5.90;;
10715;SDS011;5409;42.620;23.316;2022-09-09T08:16:14;9.65;;;5.82;;
10715;SDS011;5409;42.620;23.316;2022-09-09T08:18:43;12.32;;;5.85;;
10715;SDS011;5409;42.620;23.316;2022-09-09T08:21:10;15.02;;;6.72;;
10715;SDS011;5409;42.620;23.316;2022-09-09T08:23:39;13.23;;;5.95;;
10715;SDS011;5409;42.620;23.316;2022-09-09T08:26:06;10.38;;;6.35;;
10715;SDS011;5409;42.620;23.316;2022-09-09T08:28:36;11.40;;;6.50;;
10715;SDS011;5409;42.620;23.316;2022-09-09T08:31:14;11.43;;;6.50;;
10715;SDS011;5409;42.620;23.316;2022-09-09T08:33:42;12.30;;;5.68;;
10715;SDS011;5409;42.620;23.316;2022-09-09T08:36:11;9.73;;;6.65;;
10715;SDS011;5409;42.620;23.316;2022-09-09T08:38:41;8.95;;;6.13;;
10715;SDS011;5409;42.620;23.316;2022-09-09T08:41:24;10.25;;;6.32;;
10715;SDS011;5409;42.620;23.316;2022-09-09T08:44:00;10.15;;;5.80;;
10715;SDS011;5409;42.620;23.316;2022-09-09T08:46:33;12.00;;;6.10;;
10715;SDS011;5409;42.620;23.316;2022-09-09T08:49:14;7.72;;;6.32;;
10715;SDS011;5409;42.620;23.316;2022-09-09T08:51:50;9.68;;;6.22;;
10715;SDS011;5409;42.620;23.316;2022-09-09T08:54:22;12.85;;;6.82;;
10715;SDS011;5409;42.620;23.316;2022-09-09T08:56:50;6.30;;;5.70;;
10715;SDS011;5409;42.620;23.316;2022-09-09T08:59:17;10.40;;;5.93;;
10715;SDS011;5409;42.620;23.316;2022-09-09T09:01:55;10.40;;;6.13;;
10715;SDS011;5409;42.620;23.316;2022-09-09T09:04:34;8.35;;;5.38;;
10715;SDS011;5409;42.620;23.316;2022-09-09T09:07:16;9.32;;;5.18;;
10715;SDS011;5409;42.620;23.316;2022-09-09T09:09:55;8.52;;;5.55;;
10715;SDS011;5409;42.620;23.316;2022-09-09T09:12:28;9.10;;;5.95;;
10715;SDS011;5409;42.620;23.316;2022-09-09T09:15:04;7.22;;;6.03;;
10715;SDS011;5409;42.620;23.316;2022-09-09T09:17:43;8.70;;;6.40;;
10715;SDS011;5409;42.620;23.316;2022-09-09T09:20:12;6.78;;;5.43;;
10715;SDS011;5409;42.620;23.316;2022-09-09T09:22:43;8.52;;;5.35;;
10715;SDS011;5409;42.620;23.316;2022-09-09T09:25:15;13.30;;;5.82;;
10715;SDS011;5409;42.620;23.316;2022-09-09T09:27:44;8.75;;;5.78;;
10715;SDS011;5409;42.620;23.316;2022-09-09T09:30:18;8.40;;;5.55;;
10715;SDS011;5409;42.620;23.316;2022-09-09T09:32:49;10.45;;;5.25;;
10715;SDS011;5409;42.620;23.316;2022-09-09T09:35:20;7.22;;;5.32;;
10715;SDS011;5409;42.620;23.316;2022-09-09T09:37:47;9.98;;;5.18;;
10715;SDS011;5409;42.620;23.316;2022-09-09T09:40:15;8.63;;;6.15;;
10715;SDS011;5409;42.620;23.316;2022-09-09T09:42:48;13.38;;;4.95;;
10715;SDS011;5409;42.620;23.316;2022-09-09T09:45:17;18.05;;;5.45;;
10715;SDS011;5409;42.620;23.316;2022-09-09T09:48:04;9.18;;;5.38;;
10715;SDS011;5409;42.620;23.316;2022-09-09T09:50:33;6.88;;;4.80;;
10715;SDS011;5409;42.620;23.316;2022-09-09T09:53:00;7.57;;;4.82;;
10715;SDS011;5409;42.620;23.316;2022-09-09T09:55:30;6.13;;;5.00;;
10715;SDS011;5409;42.620;23.316;2022-09-09T09:58:02;6.45;;;5.55;;
10715;SDS011;5409;42.620;23.316;2022-09-09T10:00:30;5.75;;;5.20;;
10715;SDS011;5409;42.620;23.316;2022-09-09T10:02:59;8.40;;;4.97;;
10715;SDS011;5409;42.620;23.316;2022-09-09T10:05:28;16.88;;;5.30;;
10715;SDS011;5409;42.620;23.316;2022-09-09T10:08:00;7.22;;;4.88;;
10715;SDS011;5409;42.620;23.316;2022-09-09T10:10:31;6.60;;;4.97;;
10715;SDS011;5409;42.620;23.316;2022-09-09T10:13:08;10.68;;;4.65;;
10715;SDS011;5409;42.620;23.316;2022-09-09T10:15:41;7.20;;;4.70;;
10715;SDS011;5409;42.620;23.316;2022-09-09T10:18:19;8.80;;;5.10;;
10715;SDS011;5409;42.620;23.316;2022-09-09T10:21:03;7.72;;;4.80;;
10715;SDS011;5409;42.620;23.316;2022-09-09T10:23:45;8.43;;;5.22;;
10715;SDS011;5409;42.620;23.316;2022-09-09T10:26:25;7.13;;;5.57;;
10715;SDS011;5409;42.620;23.316;2022-09-09T10:29:06;10.68;;;5.38;;
10715;SDS011;5409;42.620;23.316;2022-09-09T10:31:44;7.75;;;5.22;;
10715;SDS011;5409;42.620;23.316;2022-09-09T10:34:27;10.02;;;5.45;;
10715;SDS011;5409;42.620;23.316;2022-09-09T10:37:15;7.68;;;5.30;;
10715;SDS011;5409;42.620;23.316;2022-09-09T10:39:50;6.90;;;5.10;;
10715;SDS011;5409;42.620;23.316;2022-09-09T10:42:25;9.52;;;5.10;;
10715;SDS011;5409;42.620;23.316;2022-09-09T10:45:00;7.28;;;5.43;;
10715;SDS011;5409;42.620;23.316;2022-09-09T10:47:45;8.40;;;5.97;;
10715;SDS011;5409;42.620;23.316;2022-09-09T10:53:21;7.22;;;5.00;;
10715;SDS011;5409;42.620;23.316;2022-09-09T10:56:00;6.88;;;5.68;;
10715;SDS011;5409;42.620;23.316;2022-09-09T10:58:31;10.70;;;5.75;;
10715;SDS011;5409;42.620;23.316;2022-09-09T11:01:06;8.80;;;5.80;;
10715;SDS011;5409;42.620;23.316;2022-09-09T11:03:41;6.00;;;5.40;;
10715;SDS011;5409;42.620;23.316;2022-09-09T11:06:10;6.80;;;5.65;;
10715;SDS011;5409;42.620;23.316;2022-09-09T11:08:42;8.85;;;5.93;;
10715;SDS011;5409;42.620;23.316;2022-09-09T11:11:09;9.38;;;5.70;;
10715;SDS011;5409;42.620;23.316;2022-09-09T11:13:42;5.93;;;5.32;;
10715;SDS011;5409;42.620;23.316;2022-09-09T11:16:19;9.00;;;5.50;;
10715;SDS011;5409;42.620;23.316;2022-09-09T11:18:50;6.75;;;5.95;;
10715;SDS011;5409;42.620;23.316;2022-09-09T11:21:25;5.57;;;5.05;;
10715;SDS011;5409;42.620;23.316;2022-09-09T11:23:59;9.15;;;5.68;;
10715;SDS011;5409;42.620;23.316;2022-09-09T11:26:31;8.68;;;5.65;;
10715;SDS011;5409;42.620;23.316;2022-09-09T11:29:08;9.10;;;5.90;;
10715;SDS011;5409;42.620;23.316;2022-09-09T11:31:53;6.35;;;5.70;;
10715;SDS011;5409;42.620;23.316;2022-09-09T11:34:44;10.75;;;5.60;;
10715;SDS011;5409;42.620;23.316;2022-09-09T11:37:32;12.50;;;5.38;;
10715;SDS011;5409;42.620;23.316;2022-09-09T11:40:18;9.90;;;5.75;;
10715;SDS011;5409;42.620;23.316;2022-09-09T11:42:47;7.82;;;5.93;;
10715;SDS011;5409;42.620;23.316;2022-09-09T11:45:22;10.40;;;5.65;;
10715;SDS011;5409;42.620;23.316;2022-09-09T11:47:51;10.43;;;5.88;;
10715;SDS011;5409;42.620;23.316;2022-09-09T11:50:29;12.75;;;5.28;;
10715;SDS011;5409;42.620;23.316;2022-09-09T11:53:06;9.82;;;5.82;;
10715;SDS011;5409;42.620;23.316;2022-09-09T11:55:59;9.80;;;5.50;;
10715;SDS011;5409;42.620;23.316;2022-09-09T11:58:28;10.77;;;6.35;;
10715;SDS011;5409;42.620;23.316;2022-09-09T12:01:12;12.35;;;6.35;;
10715;SDS011;5409;42.620;23.316;2022-09-09T12:03:41;10.70;;;6.53;;
10715;SDS011;5409;42.620;23.316;2022-09-09T12:06:11;9.02;;;6.47;;
10715;SDS011;5409;42.620;23.316;2022-09-09T12:08:42;8.05;;;5.90;;
10715;SDS011;5409;42.620;23.316;2022-09-09T12:11:22;8.63;;;5.65;;
10715;SDS011;5409;42.620;23.316;2022-09-09T12:13:52;9.32;;;6.20;;
10715;SDS011;5409;42.620;23.316;2022-09-09T12:16:27;8.57;;;6.50;;
10715;SDS011;5409;42.620;23.316;2022-09-09T12:19:06;9.90;;;5.90;;
10715;SDS011;5409;42.620;23.316;2022-09-09T12:21:42;11.48;;;5.80;;
10715;SDS011;5409;42.620;23.316;2022-09-09T12:24:16;9.13;;;6.35;;
10715;SDS011;5409;42.620;23.316;2022-09-09T12:26:54;10.27;;;5.90;;
10715;SDS011;5409;42.620;23.316;2022-09-09T12:29:30;12.95;;;6.10;;
10715;SDS011;5409;42.620;23.316;2022-09-09T12:32:07;7.72;;;5.68;;
10715;SDS011;5409;42.620;23.316;2022-09-09T12:34:38;15.10;;;6.28;;
10715;SDS011;5409;42.620;23.316;2022-09-09T12:37:08;12.82;;;6.00;;
10715;SDS011;5409;42.620;23.316;2022-09-09T12:39:45;10.95;;;6.07;;
10715;SDS011;5409;42.620;23.316;2022-09-09T12:42:19;8.40;;;6.30;;
10715;SDS011;5409;42.620;23.316;2022-09-09T12:44:50;10.85;;;5.88;;
10715;SDS011;5409;42.620;23.316;2022-09-09T12:47:21;13.23;;;6.38;;
10715;SDS011;5409;42.620;23.316;2022-09-09T12:49:52;10.85;;;6.22;;
10715;SDS011;5409;42.620;23.316;2022-09-09T12:52:22;11.77;;;6.85;;
10715;SDS011;5409;42.620;23.316;2022-09-09T12:54:55;9.27;;;6.75;;
10715;SDS011;5409;42.620;23.316;2022-09-09T12:57:24;9.93;;;6.28;;
10715;SDS011;5409;42.620;23.316;2022-09-09T12:59:52;13.07;;;6.15;;
10715;SDS011;5409;42.620;23.316;2022-09-09T13:02:31;9.80;;;6.50;;
10715;SDS011;5409;42.620;23.316;2022-09-09T13:05:05;14.25;;;6.45;;
10715;SDS011;5409;42.620;23.316;2022-09-09T13:07:39;7.60;;;5.90;;
10715;SDS011;5409;42.620;23.316;2022-09-09T13:10:10;8.88;;;6.35;;
10715;SDS011;5409;42.620;23.316;2022-09-09T13:12:39;11.40;;;6.22;;
10715;SDS011;5409;42.620;23.316;2022-09-09T13:15:10;7.25;;;5.88;;
10715;SDS011;5409;42.620;23.316;2022-09-09T13:17:48;10.50;;;6.43;;
10715;SDS011;5409;42.620;23.316;2022-09-09T13:20:16;9.40;;;7.07;;
10715;SDS011;5409;42.620;23.316;2022-09-09T13:22:43;9.25;;;6.53;;
10715;SDS011;5409;42.620;23.316;2022-09-09T13:25:17;8.75;;;6.63;;
10715;SDS011;5409;42.620;23.316;2022-09-09T13:27:57;9.20;;;6.45;;
10715;SDS011;5409;42.620;23.316;2022-09-09T13:30:28;12.35;;;6.90;;
10715;SDS011;5409;42.620;23.316;2022-09-09T13:33:04;7.50;;;6.20;;
10715;SDS011;5409;42.620;23.316;2022-09-09T13:35:48;10.82;;;6.10;;
10715;SDS011;5409;42.620;23.316;2022-09-09T13:38:16;8.00;;;6.45;;
10715;SDS011;5409;42.620;23.316;2022-09-09T13:40:57;13.65;;;7.63;;
10715;SDS011;5409;42.620;23.316;2022-09-09T13:43:28;17.42;;;9.02;;
10715;SDS011;5409;42.620;23.316;2022-09-09T13:45:58;27.85;;;9.63;;
10715;SDS011;5409;42.620;23.316;2022-09-09T13:48:26;20.67;;;9.60;;
10715;SDS011;5409;42.620;23.316;2022-09-09T13:50:56;13.10;;;7.50;;
10715;SDS011;5409;42.620;23.316;2022-09-09T13:53:24;18.08;;;7.03;;
10715;SDS011;5409;42.620;23.316;2022-09-09T13:55:50;10.30;;;5.72;;
10715;SDS011;5409;42.620;23.316;2022-09-09T13:58:18;12.23;;;6.82;;
10715;SDS011;5409;42.620;23.316;2022-09-09T14:00:46;21.00;;;8.93;;
10715;SDS011;5409;42.620;23.316;2022-09-09T14:03:13;30.83;;;10.73;;
10715;SDS011;5409;42.620;23.316;2022-09-09T14:05:40;13.70;;;6.85;;
10715;SDS011;5409;42.620;23.316;2022-09-09T14:08:07;10.00;;;6.78;;
10715;SDS011;5409;42.620;23.316;2022-09-09T14:10:41;14.60;;;6.93;;
10715;SDS011;5409;42.620;23.316;2022-09-09T14:13:07;11.95;;;6.53;;
10715;SDS011;5409;42.620;23.316;2022-09-09T14:15:34;11.73;;;6.88;;
10715;SDS011;5409;42.620;23.316;2022-09-09T14:18:02;11.55;;;5.97;;
10715;SDS011;5409;42.620;23.316;2022-09-09T14:20:29;10.88;;;7.78;;
10715;SDS011;5409;42.620;23.316;2022-09-09T14:22:57;11.32;;;7.22;;
10715;SDS011;5409;42.620;23.316;2022-09-09T14:25:23;11.43;;;7.05;;
10715;SDS011;5409;42.620;23.316;2022-09-09T14:27:50;10.40;;;6.85;;
10715;SDS011;5409;42.620;23.316;2022-09-09T14:30:17;11.55;;;7.18;;
10715;SDS011;5409;42.620;23.316;2022-09-09T14:32:44;9.68;;;7.00;;
10715;SDS011;5409;42.620;23.316;2022-09-09T14:35:12;10.80;;;6.60;;
10715;SDS011;5409;42.620;23.316;2022-09-09T14:37:39;8.65;;;6.63;;
10715;SDS011;5409;42.620;23.316;2022-09-09T14:40:06;9.60;;;5.97;;
10715;SDS011;5409;42.620;23.316;2022-09-09T14:42:33;10.93;;;6.00;;
10715;SDS011;5409;42.620;23.316;2022-09-09T14:45:00;10.15;;;6.90;;
10715;SDS011;5409;42.620;23.316;2022-09-09T14:47:27;9.38;;;6.20;;
10715;SDS011;5409;42.620;23.316;2022-09-09T14:49:55;9.32;;;7.00;;
10715;SDS011;5409;42.620;23.316;2022-09-09T14:52:23;9.27;;;6.28;;
10715;SDS011;5409;42.620;23.316;2022-09-09T14:54:50;13.63;;;8.55;;
10715;SDS011;5409;42.620;23.316;2022-09-09T14:57:17;8.63;;;7.15;;
10715;SDS011;5409;42.620;23.316;2022-09-09T14:59:44;9.75;;;6.93;;
10715;SDS011;5409;42.620;23.316;2022-09-09T15:02:11;12.30;;;7.18;;
10715;SDS011;5409;42.620;23.316;2022-09-09T15:04:39;9.02;;;7.63;;
10715;SDS011;5409;42.620;23.316;2022-09-09T15:07:05;15.05;;;8.70;;